createdAt,value
2018-07-17T00:01:46.369Z,22.83
2018-07-17T00:04:14.675Z,22.67
2018-07-17T00:06:42.809Z,22.57
2018-07-17T00:09:11.180Z,22.75
2018-07-17T00:11:39.410Z,22.89
2018-07-17T00:14:07.936Z,22.85
2018-07-17T00:16:36.225Z,22.81
2018-07-17T00:19:04.462Z,23.14
2018-07-17T00:21:32.670Z,23.38
2018-07-17T00:24:01.042Z,23.45
2018-07-17T00:26:29.253Z,23.64
2018-07-17T00:28:57.493Z,23.74
2018-07-17T00:31:25.770Z,23.75
2018-07-17T00:33:54.179Z,23.83
2018-07-17T00:36:22.422Z,23.73
2018-07-17T00:38:50.703Z,23.71
2018-07-17T00:41:19.080Z,23.87
2018-07-17T00:43:47.394Z,23.92
2018-07-17T00:46:15.837Z,23.93
2018-07-17T00:48:44.215Z,23.75
2018-07-17T00:51:12.522Z,23.71
2018-07-17T00:53:40.870Z,23.89
2018-07-17T00:56:09.137Z,23.80
2018-07-17T00:58:37.140Z,23.66
2018-07-17T01:01:04.921Z,23.41
2018-07-17T01:03:38.667Z,23.54
2018-07-17T01:06:12.498Z,23.52
2018-07-17T01:08:46.273Z,23.28
2018-07-17T01:11:20.020Z,23.19
2018-07-17T01:14:06.936Z,23.36
2018-07-17T01:16:35.129Z,23.45
2018-07-17T01:19:03.506Z,23.53
2018-07-17T01:21:31.840Z,23.50
2018-07-17T01:24:00.312Z,23.48
2018-07-17T01:26:28.802Z,23.29
2018-07-17T01:28:57.176Z,23.18
2018-07-17T01:31:25.654Z,23.20
2018-07-17T01:33:53.974Z,23.16
2018-07-17T01:36:22.202Z,23.13
2018-07-17T01:38:50.481Z,22.97
2018-07-17T01:41:18.800Z,23.07
2018-07-17T01:43:47.242Z,22.84
2018-07-17T01:46:15.492Z,22.72
2018-07-17T01:48:43.582Z,22.54
2018-07-17T01:51:11.899Z,22.44
2018-07-17T01:53:40.126Z,22.50
2018-07-17T01:56:08.205Z,22.56
2018-07-17T01:58:36.613Z,22.07
2018-07-17T02:01:04.754Z,22.06
2018-07-17T02:03:32.601Z,22.15
2018-07-17T02:06:00.892Z,22.24
2018-07-17T02:08:29.153Z,21.81
2018-07-17T02:10:57.243Z,21.75
2018-07-17T02:13:25.513Z,21.91
2018-07-17T02:15:53.882Z,21.63
2018-07-17T02:18:22.070Z,21.59
2018-07-17T02:20:50.332Z,21.70
2018-07-17T02:23:18.548Z,21.75
2018-07-17T02:25:46.781Z,21.38
2018-07-17T02:28:15.057Z,21.57
2018-07-17T02:30:43.478Z,21.25
2018-07-17T02:33:11.613Z,21.44
2018-07-17T02:35:39.769Z,21.47
2018-07-17T02:38:08.206Z,21.34
2018-07-17T02:40:36.328Z,21.26
2018-07-17T02:43:04.704Z,21.08
2018-07-17T02:45:33.020Z,21.24
2018-07-17T02:48:01.233Z,21.31
2018-07-17T02:50:29.537Z,21.31
2018-07-17T02:52:57.854Z,21.28
2018-07-17T02:55:26.302Z,21.17
2018-07-17T02:57:54.566Z,21.27
2018-07-17T03:00:22.870Z,21.36
2018-07-17T03:02:51.321Z,21.44
2018-07-17T03:05:19.490Z,21.45
2018-07-17T03:07:47.725Z,21.46
2018-07-17T03:10:16.253Z,21.58
2018-07-17T03:12:44.145Z,21.52
2018-07-17T03:15:12.550Z,21.68
2018-07-17T03:17:40.973Z,21.76
2018-07-17T03:20:09.149Z,21.72
2018-07-17T03:22:37.524Z,21.47
2018-07-17T03:25:05.986Z,21.23
2018-07-17T03:27:34.281Z,21.12
2018-07-17T03:30:02.725Z,21.28
2018-07-17T03:32:30.938Z,21.48
2018-07-17T03:34:59.213Z,21.52
2018-07-17T03:37:27.643Z,21.58
2018-07-17T03:39:55.857Z,21.52
2018-07-17T03:42:24.250Z,21.02
2018-07-17T03:44:52.576Z,20.97
2018-07-17T03:47:20.689Z,21.29
2018-07-17T03:49:49.064Z,20.99
2018-07-17T03:52:17.419Z,21.14
2018-07-17T03:54:45.820Z,21.04
2018-07-17T03:57:14.089Z,21.15
2018-07-17T03:59:42.373Z,21.28
2018-07-17T04:02:10.763Z,21.49
2018-07-17T04:04:39.062Z,21.59
2018-07-17T04:07:06.953Z,21.71
2018-07-17T04:09:35.179Z,21.75
2018-07-17T04:12:03.358Z,21.58
2018-07-17T04:14:31.301Z,21.71
2018-07-17T04:16:59.681Z,22.03
2018-07-17T04:19:27.997Z,22.03
2018-07-17T04:21:56.273Z,22.12
2018-07-17T04:24:24.573Z,22.07
2018-07-17T04:26:53.301Z,22.10
2018-07-17T04:29:21.434Z,21.79
2018-07-17T04:31:49.933Z,21.73
2018-07-17T04:34:18.236Z,21.90
2018-07-17T04:36:46.540Z,21.74
2018-07-17T04:39:14.791Z,21.88
2018-07-17T04:41:43.057Z,22.17
2018-07-17T04:44:11.586Z,22.26
2018-07-17T04:46:39.910Z,22.40
2018-07-17T04:49:08.302Z,22.52
2018-07-17T04:51:36.628Z,22.57
2018-07-17T04:54:05.054Z,22.64
2018-07-17T04:56:33.233Z,22.58
2018-07-17T04:59:01.744Z,22.38
2018-07-17T05:01:30.340Z,22.51
2018-07-17T05:03:58.670Z,22.52
2018-07-17T05:06:26.869Z,22.58
2018-07-17T05:08:55.109Z,22.77
2018-07-17T05:11:23.486Z,22.74
2018-07-17T05:13:51.801Z,22.76
2018-07-17T05:16:20.140Z,22.83
2018-07-17T05:18:48.518Z,22.88
2018-07-17T05:21:16.938Z,22.88
2018-07-17T05:23:45.066Z,23.04
2018-07-17T05:26:13.340Z,23.13
2018-07-17T05:28:41.652Z,23.07
2018-07-17T05:31:09.902Z,23.20
2018-07-17T05:33:38.265Z,23.38
2018-07-17T05:36:06.894Z,23.57
2018-07-17T05:38:34.725Z,23.69
2018-07-17T05:41:03.000Z,23.85
2018-07-17T05:43:31.276Z,23.99
2018-07-17T05:45:59.562Z,23.98
2018-07-17T05:48:27.957Z,24.10
2018-07-17T05:50:56.107Z,24.22
2018-07-17T05:53:24.390Z,24.36
2018-07-17T05:55:52.886Z,24.68
2018-07-17T05:58:21.161Z,24.98
2018-07-17T06:00:49.401Z,25.24
2018-07-17T06:03:17.793Z,25.40
2018-07-17T06:05:46.053Z,25.43
2018-07-17T06:08:14.229Z,25.21
2018-07-17T06:10:42.627Z,25.16
2018-07-17T06:13:10.881Z,25.40
2018-07-17T06:15:39.252Z,25.43
2018-07-17T06:18:07.540Z,25.40
2018-07-17T06:20:35.801Z,25.31
2018-07-17T06:23:04.213Z,25.40
2018-07-17T06:25:32.468Z,25.31
2018-07-17T06:28:00.744Z,25.41
2018-07-17T06:30:29.018Z,25.51
2018-07-17T06:32:57.389Z,25.51
2018-07-17T06:35:25.773Z,25.62
2018-07-17T06:37:54.037Z,25.67
2018-07-17T06:40:22.426Z,25.68
2018-07-17T06:42:50.825Z,25.71
2018-07-17T06:45:19.291Z,25.86
2018-07-17T06:47:47.570Z,25.96
2018-07-17T06:50:16.051Z,26.33
2018-07-17T06:52:44.189Z,26.65
2018-07-17T06:55:12.606Z,26.46
2018-07-17T06:57:40.974Z,26.42
2018-07-17T07:00:09.445Z,26.66
2018-07-17T07:02:37.618Z,26.97
2018-07-17T07:05:06.006Z,27.06
2018-07-17T07:07:34.282Z,27.00
2018-07-17T07:10:02.153Z,27.10
2018-07-17T07:12:30.617Z,27.04
2018-07-17T07:14:58.998Z,27.18
2018-07-17T07:17:27.187Z,27.03
2018-07-17T07:19:55.466Z,27.35
2018-07-17T07:22:23.937Z,27.49
2018-07-17T07:24:52.310Z,27.56
2018-07-17T07:27:20.794Z,27.77
2018-07-17T07:29:49.167Z,27.77
2018-07-17T07:32:17.453Z,27.61
2018-07-17T07:34:45.822Z,27.78
2018-07-17T07:37:14.140Z,27.91
2018-07-17T07:39:42.342Z,27.75
2018-07-17T07:42:10.745Z,27.85
2018-07-17T07:44:39.113Z,28.02
2018-07-17T07:47:07.621Z,28.01
2018-07-17T07:49:35.781Z,27.81
2018-07-17T07:52:04.158Z,27.88
2018-07-17T07:54:32.325Z,28.14
2018-07-17T07:57:00.507Z,28.27
2018-07-17T07:59:28.875Z,28.34
2018-07-17T08:01:57.038Z,28.36
2018-07-17T08:04:25.076Z,28.45
2018-07-17T08:06:53.403Z,28.37
2018-07-17T08:09:21.674Z,28.22
2018-07-17T08:11:49.777Z,28.14
2018-07-17T08:14:18.121Z,28.21
2018-07-17T08:16:46.609Z,28.36
2018-07-17T08:19:14.870Z,28.54
2018-07-17T08:21:43.367Z,28.57
2018-07-17T08:24:11.770Z,28.63
2018-07-17T08:26:40.223Z,28.66
2018-07-17T08:29:08.402Z,28.53
2018-07-17T08:31:36.887Z,28.47
2018-07-17T08:34:05.240Z,28.72
2018-07-17T08:36:33.664Z,28.70
2018-07-17T08:39:02.002Z,28.72
2018-07-17T08:41:30.390Z,28.82
2018-07-17T08:43:58.662Z,28.90
2018-07-17T08:46:27.132Z,29.08
2018-07-17T08:48:55.410Z,29.14
2018-07-17T08:51:23.697Z,29.06
2018-07-17T08:53:52.069Z,29.23
2018-07-17T08:56:20.448Z,29.36
2018-07-17T08:58:48.722Z,29.35
2018-07-17T09:01:17.246Z,29.44
2018-07-17T09:03:45.574Z,29.46
2018-07-17T09:06:13.745Z,29.45
2018-07-17T09:08:42.021Z,29.50
2018-07-17T09:11:10.300Z,29.60
2018-07-17T09:13:38.582Z,29.59
2018-07-17T09:16:07.052Z,29.57
2018-07-17T09:18:36.159Z,29.61
2018-07-17T09:21:04.459Z,29.52
2018-07-17T09:23:32.909Z,29.62
2018-07-17T09:26:01.069Z,29.70
2018-07-17T09:31:11.649Z,29.44
2018-07-17T09:33:39.989Z,29.51
2018-07-17T09:36:08.019Z,29.69
2018-07-17T09:38:36.278Z,29.79
2018-07-17T09:41:04.558Z,29.77
2018-07-17T09:43:32.937Z,29.83
2018-07-17T09:46:01.215Z,29.87
2018-07-17T09:48:29.490Z,29.94
2018-07-17T09:50:57.957Z,30.03
2018-07-17T09:53:26.151Z,29.77
2018-07-17T09:55:54.424Z,29.93
2018-07-17T09:58:22.701Z,29.96
2018-07-17T10:00:56.445Z,30.02
2018-07-17T10:03:24.668Z,29.97
2018-07-17T10:05:52.850Z,29.95
2018-07-17T10:08:21.222Z,29.94
2018-07-17T10:10:49.689Z,30.07
2018-07-17T10:13:18.087Z,30.21
2018-07-17T10:15:46.478Z,30.19
2018-07-17T10:18:14.837Z,30.27
2018-07-17T10:20:43.018Z,30.40
2018-07-17T10:23:11.391Z,30.15
2018-07-17T10:25:39.560Z,30.00
2018-07-17T10:28:07.838Z,30.01
2018-07-17T10:30:36.101Z,29.91
2018-07-17T10:33:04.489Z,29.81
2018-07-17T10:35:32.765Z,29.63
2018-07-17T10:38:01.038Z,28.98
2018-07-17T10:40:29.408Z,28.43
2018-07-17T10:42:57.566Z,28.04
2018-07-17T10:45:26.069Z,27.69
2018-07-17T10:47:54.555Z,27.44
2018-07-17T10:50:22.826Z,27.43
2018-07-17T10:52:51.088Z,27.39
2018-07-17T10:55:19.474Z,27.26
2018-07-17T10:57:47.878Z,27.38
2018-07-17T11:00:16.029Z,27.45
2018-07-17T11:02:44.401Z,27.16
2018-07-17T11:05:12.693Z,26.90
2018-07-17T11:07:41.066Z,26.59
2018-07-17T11:10:09.304Z,26.41
2018-07-17T11:12:37.605Z,26.06
2018-07-17T11:15:05.991Z,25.58
2018-07-17T11:17:34.369Z,25.55
2018-07-17T11:20:02.651Z,25.51
2018-07-17T11:22:30.793Z,25.78
2018-07-17T11:24:59.191Z,25.83
2018-07-17T11:27:27.370Z,25.95
2018-07-17T11:29:55.648Z,25.83
2018-07-17T11:32:24.021Z,25.58
2018-07-17T11:34:52.289Z,25.38
2018-07-17T11:37:20.675Z,25.28
2018-07-17T11:39:48.923Z,25.13
2018-07-17T11:42:17.476Z,25.05
2018-07-17T11:44:45.605Z,25.15
2018-07-17T11:47:13.882Z,24.86
2018-07-17T11:49:42.206Z,24.74
2018-07-17T11:52:10.079Z,23.88
2018-07-17T11:54:38.502Z,24.07
2018-07-17T11:57:06.886Z,24.26
2018-07-17T11:59:35.313Z,24.26
2018-07-17T12:02:03.891Z,24.26
2018-07-17T12:04:32.210Z,24.18
2018-07-17T12:07:00.486Z,24.29
2018-07-17T12:09:28.801Z,24.43
2018-07-17T12:11:57.137Z,24.47
2018-07-17T12:14:25.517Z,24.48
2018-07-17T12:16:53.789Z,24.29
2018-07-17T12:19:22.045Z,24.20
2018-07-17T12:21:50.450Z,24.28
2018-07-17T12:24:18.729Z,24.28
2018-07-17T12:26:47.106Z,24.35
2018-07-17T12:29:15.378Z,24.42
2018-07-17T12:31:43.849Z,24.45
2018-07-17T12:34:12.246Z,24.46
2018-07-17T12:36:40.503Z,24.82
2018-07-17T12:39:10.361Z,24.89
2018-07-17T12:41:38.699Z,24.86
2018-07-17T12:44:06.964Z,24.99
2018-07-17T12:46:35.023Z,24.83
2018-07-17T12:49:03.454Z,24.77
2018-07-17T12:51:31.905Z,25.06
2018-07-17T12:54:00.342Z,24.86
2018-07-17T12:56:28.766Z,24.96
2018-07-17T12:58:57.017Z,24.90
2018-07-17T13:01:25.036Z,24.91
2018-07-17T13:03:53.490Z,24.90
2018-07-17T13:06:21.766Z,24.95
2018-07-17T13:08:49.745Z,24.99
2018-07-17T13:11:18.248Z,25.16
2018-07-17T13:13:46.581Z,25.38
2018-07-17T13:16:14.618Z,25.59
2018-07-17T13:18:42.937Z,25.88
2018-07-17T13:21:11.313Z,25.90
2018-07-17T13:23:39.609Z,25.75
2018-07-17T13:26:07.973Z,25.76
2018-07-17T13:28:36.324Z,25.86
2018-07-17T13:31:04.722Z,25.83
2018-07-17T13:33:33.010Z,25.75
2018-07-17T13:36:01.274Z,25.47
2018-07-17T13:38:29.542Z,25.29
2018-07-17T13:40:57.820Z,25.25
2018-07-17T13:43:26.201Z,25.37
2018-07-17T13:45:54.581Z,25.49
2018-07-17T13:48:22.746Z,25.41
2018-07-17T13:50:51.035Z,25.40
2018-07-17T13:53:19.308Z,25.40
2018-07-17T13:55:47.462Z,25.37
2018-07-17T13:58:15.852Z,25.36
2018-07-17T14:00:44.127Z,25.37
2018-07-17T14:03:12.501Z,25.45
2018-07-17T14:05:40.787Z,25.40
2018-07-17T14:08:09.257Z,25.46
2018-07-17T14:10:37.656Z,25.55
2018-07-17T14:13:06.234Z,25.47
2018-07-17T14:15:34.503Z,25.39
2018-07-17T14:18:02.981Z,25.38
2018-07-17T14:20:31.365Z,25.14
2018-07-17T14:22:59.533Z,25.18
2018-07-17T14:25:28.006Z,25.17
2018-07-17T14:27:56.389Z,25.16
2018-07-17T14:30:24.760Z,25.07
2018-07-17T14:32:53.004Z,25.15
2018-07-17T14:35:21.421Z,25.23
2018-07-17T14:37:49.698Z,25.01
2018-07-17T14:40:18.081Z,25.10
2018-07-17T14:42:46.519Z,25.10
2018-07-17T14:45:14.830Z,25.19
2018-07-17T14:47:42.973Z,25.18
2018-07-17T14:50:11.381Z,25.16
2018-07-17T14:52:39.669Z,25.22
2018-07-17T14:55:09.216Z,25.14
2018-07-17T14:57:37.529Z,25.03
2018-07-17T15:00:06.311Z,24.86
2018-07-17T15:02:34.706Z,24.98
2018-07-17T15:05:03.177Z,25.03
2018-07-17T15:07:31.358Z,25.08
2018-07-17T15:09:59.830Z,25.25
2018-07-17T15:12:28.105Z,25.30
2018-07-17T15:14:56.492Z,25.46
2018-07-17T15:17:24.809Z,25.47
2018-07-17T15:19:53.146Z,25.54
2018-07-17T15:22:21.520Z,25.50
2018-07-17T15:24:49.594Z,25.49
2018-07-17T15:27:17.857Z,25.49
2018-07-17T15:29:46.241Z,25.50
2018-07-17T15:32:14.527Z,25.46
2018-07-17T15:34:42.797Z,25.49
2018-07-17T15:37:11.074Z,25.59
2018-07-17T15:39:39.248Z,25.60
2018-07-17T15:42:07.733Z,25.66
2018-07-17T15:44:35.901Z,25.76
2018-07-17T15:47:04.374Z,25.77
2018-07-17T15:49:32.704Z,25.79
2018-07-17T15:52:00.939Z,25.77
2018-07-17T15:54:29.311Z,25.75
2018-07-17T15:56:57.788Z,25.74
2018-07-17T15:59:26.176Z,25.79
2018-07-17T16:01:54.662Z,25.82
2018-07-17T16:04:22.888Z,25.82
2018-07-17T16:06:51.297Z,25.72
2018-07-17T16:09:20.389Z,25.57
2018-07-17T16:11:48.760Z,25.36
2018-07-17T16:14:17.533Z,25.30
2018-07-17T16:16:45.633Z,25.33
2018-07-17T16:19:13.793Z,25.43
2018-07-17T16:21:42.180Z,25.49
2018-07-17T16:24:10.457Z,25.39
2018-07-17T16:26:38.480Z,25.36
2018-07-17T16:29:07.000Z,25.35
2018-07-17T16:31:35.377Z,25.21
2018-07-17T16:34:03.639Z,25.16
2018-07-17T16:36:32.035Z,25.27
2018-07-17T16:39:00.409Z,25.24
2018-07-17T16:41:28.668Z,24.95
2018-07-17T16:43:56.961Z,24.98
2018-07-17T16:46:25.241Z,24.84
2018-07-17T16:48:53.312Z,24.83
2018-07-17T16:51:21.589Z,24.75
2018-07-17T16:53:49.865Z,24.69
2018-07-17T16:56:18.142Z,24.78
2018-07-17T16:58:46.408Z,24.74
2018-07-17T17:01:14.762Z,24.72
2018-07-17T17:03:43.056Z,24.75
2018-07-17T17:06:11.342Z,24.72
2018-07-17T17:08:39.615Z,24.71
2018-07-17T17:11:07.493Z,24.69
2018-07-17T17:13:35.645Z,24.71
2018-07-17T17:16:04.038Z,24.75
2018-07-17T17:18:31.872Z,24.67
2018-07-17T17:21:00.330Z,24.50
2018-07-17T17:23:28.556Z,24.55
2018-07-17T17:25:56.826Z,24.71
2018-07-17T17:28:24.997Z,24.63
2018-07-17T17:30:53.485Z,24.44
2018-07-17T17:33:21.649Z,24.17
2018-07-17T17:35:50.021Z,24.21
2018-07-17T17:38:18.414Z,24.37
2018-07-17T17:40:46.894Z,24.32
2018-07-17T17:43:15.166Z,24.38
2018-07-17T17:45:43.438Z,24.28
2018-07-17T17:48:11.723Z,24.17
2018-07-17T17:50:39.981Z,23.98
2018-07-17T17:53:08.366Z,24.02
2018-07-17T17:55:36.749Z,24.11
2018-07-17T17:58:05.222Z,24.31
2018-07-17T18:00:33.407Z,24.31
2018-07-17T18:03:01.773Z,24.33
2018-07-17T18:05:29.936Z,24.30
2018-07-17T18:07:58.434Z,24.33
2018-07-17T18:10:26.610Z,24.30
2018-07-17T18:12:54.986Z,24.27
2018-07-17T18:15:23.255Z,24.26
2018-07-17T18:17:51.538Z,24.11
2018-07-17T18:20:19.474Z,24.17
2018-07-17T18:22:47.540Z,24.30
2018-07-17T18:25:15.944Z,24.34
2018-07-17T18:27:43.877Z,24.35
2018-07-17T18:30:12.292Z,24.31
2018-07-17T18:32:40.573Z,24.28
2018-07-17T18:35:08.957Z,24.25
2018-07-17T18:37:37.317Z,24.16
2018-07-17T18:40:05.778Z,24.16
2018-07-17T18:42:34.085Z,24.15
2018-07-17T18:45:02.502Z,24.15
2018-07-17T18:47:31.664Z,24.22
2018-07-17T18:52:29.274Z,24.18
2018-07-17T18:54:57.439Z,24.29
2018-07-17T18:57:25.899Z,24.38
2018-07-17T18:59:54.049Z,24.46
2018-07-17T19:02:23.280Z,24.43
2018-07-17T19:04:51.532Z,24.31
2018-07-17T19:07:19.805Z,24.33
2018-07-17T19:09:48.295Z,24.32
2018-07-17T19:12:16.571Z,24.37
2018-07-17T19:14:44.451Z,24.37
2018-07-17T19:17:12.805Z,24.36
2018-07-17T19:19:41.064Z,24.29
2018-07-17T19:22:09.463Z,24.22
2018-07-17T19:24:37.547Z,24.30
2018-07-17T19:27:05.942Z,24.29
2018-07-17T19:29:34.069Z,24.28
2018-07-17T19:32:02.588Z,24.40
2018-07-17T19:34:31.774Z,24.34
2018-07-17T19:37:00.401Z,24.30
2018-07-17T19:39:28.649Z,24.31
2018-07-17T19:41:56.885Z,24.28
2018-07-17T19:44:25.265Z,24.29
2018-07-17T19:46:53.541Z,24.22
2018-07-17T19:49:21.921Z,24.17
2018-07-17T19:51:50.203Z,24.19
2018-07-17T19:54:18.374Z,24.26
2018-07-17T19:56:46.641Z,24.33
2018-07-17T19:59:14.918Z,24.37
2018-07-17T20:01:43.397Z,24.37
2018-07-17T20:04:11.674Z,24.38
2018-07-17T20:06:40.062Z,24.32
2018-07-17T20:09:08.786Z,24.43
2018-07-17T20:11:37.123Z,24.39
2018-07-17T20:14:05.481Z,24.12
2018-07-17T20:16:33.776Z,24.10
2018-07-17T20:19:02.050Z,24.10
2018-07-17T20:21:30.317Z,24.26
2018-07-17T20:23:58.594Z,24.32
2018-07-17T20:26:26.977Z,24.26
2018-07-17T20:28:55.154Z,24.23
2018-07-17T20:31:23.432Z,23.97
2018-07-17T20:33:51.853Z,23.96
2018-07-17T20:36:19.929Z,23.98
2018-07-17T20:38:48.359Z,24.02
2018-07-17T20:41:16.738Z,24.06
2018-07-17T20:43:45.101Z,24.02
2018-07-17T20:46:13.390Z,23.89
2018-07-17T20:48:41.248Z,24.03
2018-07-17T20:51:10.085Z,24.04
2018-07-17T20:53:38.205Z,24.12
2018-07-17T20:56:06.601Z,24.21
2018-07-17T20:58:34.771Z,24.28
2018-07-17T21:01:03.044Z,24.29
2018-07-17T21:03:31.222Z,24.26
2018-07-17T21:05:59.694Z,24.36
2018-07-17T21:08:27.865Z,24.31
2018-07-17T21:10:56.045Z,24.21
2018-07-17T21:13:24.113Z,24.20
2018-07-17T21:15:52.491Z,24.14
2018-07-17T21:18:20.780Z,23.98
2018-07-17T21:20:48.933Z,23.82
2018-07-17T21:23:17.218Z,23.80
2018-07-17T21:25:45.486Z,23.83
2018-07-17T21:28:13.870Z,23.78
2018-07-17T21:30:42.243Z,23.80
2018-07-17T21:33:10.519Z,23.84
2018-07-17T21:35:38.694Z,23.82
2018-07-17T21:38:06.966Z,23.65
2018-07-17T21:40:35.245Z,23.60
2018-07-17T21:43:03.413Z,23.62
2018-07-17T21:45:31.794Z,23.63
2018-07-17T21:47:59.966Z,23.38
2018-07-17T21:50:28.448Z,23.41
2018-07-17T21:52:56.624Z,23.42
2018-07-17T21:55:25.025Z,23.49
2018-07-17T21:57:53.275Z,23.47
2018-07-17T22:00:21.554Z,23.55
2018-07-17T22:02:50.022Z,23.60
2018-07-17T22:05:18.309Z,23.61
2018-07-17T22:07:46.786Z,23.68
2018-07-17T22:10:15.155Z,23.55
2018-07-17T22:12:43.538Z,23.57
2018-07-17T22:15:11.870Z,23.62
2018-07-17T22:17:40.185Z,23.67
2018-07-17T22:20:08.430Z,23.69
2018-07-17T22:22:36.845Z,23.76
2018-07-17T22:25:05.026Z,23.84
2018-07-17T22:27:33.502Z,23.87
2018-07-17T22:30:01.779Z,23.93
2018-07-17T22:32:30.053Z,23.61
2018-07-17T22:34:58.234Z,23.55
2018-07-17T22:37:26.604Z,23.53
2018-07-17T22:39:54.879Z,23.60
2018-07-17T22:42:23.249Z,23.68
2018-07-17T22:44:51.439Z,23.73
2018-07-17T22:47:19.695Z,23.78
2018-07-17T22:49:47.778Z,23.64
2018-07-17T22:52:16.019Z,23.69
2018-07-17T22:54:44.330Z,23.77
2018-07-17T22:57:12.383Z,23.76
2018-07-17T22:59:40.670Z,23.71
2018-07-17T23:02:09.091Z,23.74
2018-07-17T23:04:36.922Z,23.81
2018-07-17T23:07:05.191Z,23.80
2018-07-17T23:09:33.466Z,24.00
2018-07-17T23:12:01.816Z,23.94
2018-07-17T23:14:30.121Z,24.06
2018-07-17T23:16:58.386Z,24.06
2018-07-17T23:19:26.342Z,24.16
2018-07-17T23:21:54.530Z,24.16
2018-07-17T23:24:22.705Z,24.29
2018-07-17T23:26:50.983Z,24.52
2018-07-17T23:29:19.367Z,24.26
2018-07-17T23:31:47.629Z,23.94
2018-07-17T23:34:15.924Z,23.99
2018-07-17T23:36:44.202Z,23.83
2018-07-17T23:39:12.462Z,23.68
2018-07-17T23:41:41.003Z,23.65
2018-07-17T23:44:09.322Z,23.54
2018-07-17T23:46:37.809Z,23.62
2018-07-17T23:49:06.070Z,23.51
2018-07-17T23:51:34.446Z,23.51
2018-07-17T23:54:02.739Z,23.65
2018-07-17T23:56:31.098Z,23.66
2018-07-17T23:58:59.490Z,23.58
